sensor_id;sensor_type;location;lat;lon;timestamp;temperature;humidity
10433;DHT22;5263;48.680;9.004;2022-07-06T00:01:45;16.20;99.90
10433;DHT22;5263;48.680;9.004;2022-07-06T00:04:10;16.10;99.90
10433;DHT22;5263;48.680;9.004;2022-07-06T00:06:36;16.10;99.90
10433;DHT22;5263;48.680;9.004;2022-07-06T00:09:03;16.10;99.90
10433;DHT22;5263;48.680;9.004;2022-07-06T00:11:29;16.20;99.90
10433;DHT22;5263;48.680;9.004;2022-07-06T00:13:55;16.20;99.90
10433;DHT22;5263;48.680;9.004;2022-07-06T00:16:22;16.30;99.90
10433;DHT22;5263;48.680;9.004;2022-07-06T00:18:48;16.40;99.90
10433;DHT22;5263;48.680;9.004;2022-07-06T00:21:14;16.40;99.90
10433;DHT22;5263;48.680;9.004;2022-07-06T00:23:39;16.30;99.90
10433;DHT22;5263;48.680;9.004;2022-07-06T00:26:05;16.30;99.90
10433;DHT22;5263;48.680;9.004;2022-07-06T00:28:31;16.30;99.90
10433;DHT22;5263;48.680;9.004;2022-07-06T00:30:56;16.20;99.90
10433;DHT22;5263;48.680;9.004;2022-07-06T00:33:22;16.40;99.90
10433;DHT22;5263;48.680;9.004;2022-07-06T00:35:48;16.50;99.90
10433;DHT22;5263;48.680;9.004;2022-07-06T00:38:14;16.40;99.90
10433;DHT22;5263;48.680;9.004;2022-07-06T00:40:40;16.00;99.90
10433;DHT22;5263;48.680;9.004;2022-07-06T00:43:05;15.90;99.90
10433;DHT22;5263;48.680;9.004;2022-07-06T00:45:31;15.90;99.90
10433;DHT22;5263;48.680;9.004;2022-07-06T00:47:56;15.80;99.90
10433;DHT22;5263;48.680;9.004;2022-07-06T00:50:22;15.80;99.90
10433;DHT22;5263;48.680;9.004;2022-07-06T00:53:07;15.90;99.90
10433;DHT22;5263;48.680;9.004;2022-07-06T00:55:36;15.90;99.90
10433;DHT22;5263;48.680;9.004;2022-07-06T00:58:03;15.70;99.90
10433;DHT22;5263;48.680;9.004;2022-07-06T01:00:29;15.60;99.90
10433;DHT22;5263;48.680;9.004;2022-07-06T01:02:55;15.60;99.90
10433;DHT22;5263;48.680;9.004;2022-07-06T01:05:21;15.60;99.90
10433;DHT22;5263;48.680;9.004;2022-07-06T01:07:49;15.50;99.90
10433;DHT22;5263;48.680;9.004;2022-07-06T01:10:16;15.60;99.90
10433;DHT22;5263;48.680;9.004;2022-07-06T01:12:44;15.50;99.90
10433;DHT22;5263;48.680;9.004;2022-07-06T01:15:13;15.40;99.90
10433;DHT22;5263;48.680;9.004;2022-07-06T01:17:39;15.40;99.90
10433;DHT22;5263;48.680;9.004;2022-07-06T01:20:14;15.40;99.90
10433;DHT22;5263;48.680;9.004;2022-07-06T01:22:40;15.40;99.90
10433;DHT22;5263;48.680;9.004;2022-07-06T01:25:06;15.40;99.90
10433;DHT22;5263;48.680;9.004;2022-07-06T01:27:35;15.30;99.90
10433;DHT22;5263;48.680;9.004;2022-07-06T01:30:10;15.20;99.90
10433;DHT22;5263;48.680;9.004;2022-07-06T01:32:36;15.30;99.90
10433;DHT22;5263;48.680;9.004;2022-07-06T01:35:03;15.30;99.90
10433;DHT22;5263;48.680;9.004;2022-07-06T01:37:30;15.00;99.90
10433;DHT22;5263;48.680;9.004;2022-07-06T01:40:04;14.70;99.90
10433;DHT22;5263;48.680;9.004;2022-07-06T01:42:30;14.70;99.90
10433;DHT22;5263;48.680;9.004;2022-07-06T01:44:56;14.70;99.90
10433;DHT22;5263;48.680;9.004;2022-07-06T01:47:21;14.60;99.90
10433;DHT22;5263;48.680;9.004;2022-07-06T01:49:47;14.40;99.90
10433;DHT22;5263;48.680;9.004;2022-07-06T01:52:13;14.50;99.90
10433;DHT22;5263;48.680;9.004;2022-07-06T01:54:38;14.40;99.90
10433;DHT22;5263;48.680;9.004;2022-07-06T01:57:04;14.30;99.90
10433;DHT22;5263;48.680;9.004;2022-07-06T01:59:30;14.40;99.90
10433;DHT22;5263;48.680;9.004;2022-07-06T02:01:55;14.70;99.90
10433;DHT22;5263;48.680;9.004;2022-07-06T02:04:21;14.60;99.90
10433;DHT22;5263;48.680;9.004;2022-07-06T02:06:47;14.80;99.90
10433;DHT22;5263;48.680;9.004;2022-07-06T02:09:12;14.80;99.90
10433;DHT22;5263;48.680;9.004;2022-07-06T02:11:38;15.10;99.90
10433;DHT22;5263;48.680;9.004;2022-07-06T02:14:04;15.10;99.90
10433;DHT22;5263;48.680;9.004;2022-07-06T02:16:29;15.10;99.90
10433;DHT22;5263;48.680;9.004;2022-07-06T02:18:55;15.20;99.90
10433;DHT22;5263;48.680;9.004;2022-07-06T02:21:20;15.30;99.90
10433;DHT22;5263;48.680;9.004;2022-07-06T02:23:46;15.40;99.90
10433;DHT22;5263;48.680;9.004;2022-07-06T02:26:11;15.40;99.90
10433;DHT22;5263;48.680;9.004;2022-07-06T02:28:37;15.40;99.90
10433;DHT22;5263;48.680;9.004;2022-07-06T02:31:03;15.30;99.90
10433;DHT22;5263;48.680;9.004;2022-07-06T02:33:28;15.10;99.90
10433;DHT22;5263;48.680;9.004;2022-07-06T02:35:54;15.10;99.90
10433;DHT22;5263;48.680;9.004;2022-07-06T02:38:19;15.20;99.90
10433;DHT22;5263;48.680;9.004;2022-07-06T02:40:45;15.00;99.90
10433;DHT22;5263;48.680;9.004;2022-07-06T02:43:10;15.00;99.90
10433;DHT22;5263;48.680;9.004;2022-07-06T02:45:36;15.20;99.90
10433;DHT22;5263;48.680;9.004;2022-07-06T02:48:02;15.00;99.90
10433;DHT22;5263;48.680;9.004;2022-07-06T02:50:28;15.10;99.90
10433;DHT22;5263;48.680;9.004;2022-07-06T02:52:53;15.20;99.90
10433;DHT22;5263;48.680;9.004;2022-07-06T02:55:20;15.20;99.90
10433;DHT22;5263;48.680;9.004;2022-07-06T02:57:46;15.30;99.90
10433;DHT22;5263;48.680;9.004;2022-07-06T03:00:12;15.20;99.90
10433;DHT22;5263;48.680;9.004;2022-07-06T03:02:38;15.00;99.90
10433;DHT22;5263;48.680;9.004;2022-07-06T03:05:04;15.00;99.90
10433;DHT22;5263;48.680;9.004;2022-07-06T03:07:29;14.90;99.90
10433;DHT22;5263;48.680;9.004;2022-07-06T03:09:55;14.80;99.90
10433;DHT22;5263;48.680;9.004;2022-07-06T03:12:20;14.80;99.90
10433;DHT22;5263;48.680;9.004;2022-07-06T03:14:46;15.00;99.90
10433;DHT22;5263;48.680;9.004;2022-07-06T03:17:12;14.90;99.90
10433;DHT22;5263;48.680;9.004;2022-07-06T03:19:37;14.50;99.90
10433;DHT22;5263;48.680;9.004;2022-07-06T03:22:03;15.00;99.90
10433;DHT22;5263;48.680;9.004;2022-07-06T03:24:29;14.90;99.90
10433;DHT22;5263;48.680;9.004;2022-07-06T03:26:54;14.90;99.90
10433;DHT22;5263;48.680;9.004;2022-07-06T03:29:20;14.80;99.90
10433;DHT22;5263;48.680;9.004;2022-07-06T03:31:46;14.80;99.90
10433;DHT22;5263;48.680;9.004;2022-07-06T03:34:11;14.80;99.90
10433;DHT22;5263;48.680;9.004;2022-07-06T03:36:37;14.70;99.90
10433;DHT22;5263;48.680;9.004;2022-07-06T03:39:03;14.60;99.90
10433;DHT22;5263;48.680;9.004;2022-07-06T03:41:28;14.60;99.90
10433;DHT22;5263;48.680;9.004;2022-07-06T03:43:54;14.60;99.90
10433;DHT22;5263;48.680;9.004;2022-07-06T03:46:19;14.50;99.90
10433;DHT22;5263;48.680;9.004;2022-07-06T03:48:45;14.50;99.90
10433;DHT22;5263;48.680;9.004;2022-07-06T03:51:11;14.40;99.90
10433;DHT22;5263;48.680;9.004;2022-07-06T03:53:37;14.50;99.90
10433;DHT22;5263;48.680;9.004;2022-07-06T03:56:02;14.50;99.90
10433;DHT22;5263;48.680;9.004;2022-07-06T03:58:46;14.50;99.90
10433;DHT22;5263;48.680;9.004;2022-07-06T04:01:12;14.60;99.90
10433;DHT22;5263;48.680;9.004;2022-07-06T04:03:38;14.60;99.90
10433;DHT22;5263;48.680;9.004;2022-07-06T04:06:04;14.60;99.90
10433;DHT22;5263;48.680;9.004;2022-07-06T04:08:29;14.60;99.90
10433;DHT22;5263;48.680;9.004;2022-07-06T04:10:55;14.50;99.90
10433;DHT22;5263;48.680;9.004;2022-07-06T04:13:21;14.50;99.90
10433;DHT22;5263;48.680;9.004;2022-07-06T04:15:46;14.60;99.90
10433;DHT22;5263;48.680;9.004;2022-07-06T04:18:12;14.40;99.90
10433;DHT22;5263;48.680;9.004;2022-07-06T04:20:38;14.40;99.90
10433;DHT22;5263;48.680;9.004;2022-07-06T04:23:03;14.60;99.90
10433;DHT22;5263;48.680;9.004;2022-07-06T04:25:29;14.70;99.90
10433;DHT22;5263;48.680;9.004;2022-07-06T04:27:55;14.90;99.90
10433;DHT22;5263;48.680;9.004;2022-07-06T04:30:20;14.90;99.90
10433;DHT22;5263;48.680;9.004;2022-07-06T04:32:46;14.90;99.90
10433;DHT22;5263;48.680;9.004;2022-07-06T04:35:11;14.90;99.90
10433;DHT22;5263;48.680;9.004;2022-07-06T04:37:37;15.00;99.90
10433;DHT22;5263;48.680;9.004;2022-07-06T04:40:03;14.90;99.90
10433;DHT22;5263;48.680;9.004;2022-07-06T04:42:29;14.90;99.90
10433;DHT22;5263;48.680;9.004;2022-07-06T04:44:54;14.80;99.90
10433;DHT22;5263;48.680;9.004;2022-07-06T04:47:20;14.80;99.90
10433;DHT22;5263;48.680;9.004;2022-07-06T04:49:46;14.90;99.90
10433;DHT22;5263;48.680;9.004;2022-07-06T04:52:11;14.90;99.90
10433;DHT22;5263;48.680;9.004;2022-07-06T04:54:37;14.90;99.90
10433;DHT22;5263;48.680;9.004;2022-07-06T04:57:03;15.00;99.90
10433;DHT22;5263;48.680;9.004;2022-07-06T04:59:28;14.90;99.90
10433;DHT22;5263;48.680;9.004;2022-07-06T05:01:54;14.90;99.90
10433;DHT22;5263;48.680;9.004;2022-07-06T05:04:19;15.10;99.90
10433;DHT22;5263;48.680;9.004;2022-07-06T05:06:46;15.10;99.90
10433;DHT22;5263;48.680;9.004;2022-07-06T05:09:12;15.10;99.90
10433;DHT22;5263;48.680;9.004;2022-07-06T05:11:38;15.20;99.90
10433;DHT22;5263;48.680;9.004;2022-07-06T05:14:04;15.20;99.90
10433;DHT22;5263;48.680;9.004;2022-07-06T05:16:30;15.30;99.90
10433;DHT22;5263;48.680;9.004;2022-07-06T05:18:56;15.40;99.90
10433;DHT22;5263;48.680;9.004;2022-07-06T05:21:21;15.40;99.90
10433;DHT22;5263;48.680;9.004;2022-07-06T05:23:47;15.50;99.90
10433;DHT22;5263;48.680;9.004;2022-07-06T05:26:13;15.50;99.90
10433;DHT22;5263;48.680;9.004;2022-07-06T05:28:38;15.60;99.90
10433;DHT22;5263;48.680;9.004;2022-07-06T05:31:04;15.70;99.90
10433;DHT22;5263;48.680;9.004;2022-07-06T05:33:30;15.60;99.90
10433;DHT22;5263;48.680;9.004;2022-07-06T05:35:55;15.70;99.90
10433;DHT22;5263;48.680;9.004;2022-07-06T05:38:21;15.70;99.90
10433;DHT22;5263;48.680;9.004;2022-07-06T05:40:46;15.80;99.90
10433;DHT22;5263;48.680;9.004;2022-07-06T05:43:12;15.80;99.90
10433;DHT22;5263;48.680;9.004;2022-07-06T05:45:38;16.00;99.90
10433;DHT22;5263;48.680;9.004;2022-07-06T05:48:03;16.10;99.90
10433;DHT22;5263;48.680;9.004;2022-07-06T05:50:47;16.10;99.90
10433;DHT22;5263;48.680;9.004;2022-07-06T05:53:13;16.10;99.90
10433;DHT22;5263;48.680;9.004;2022-07-06T05:55:38;16.30;99.90
10433;DHT22;5263;48.680;9.004;2022-07-06T05:58:04;16.30;99.90
10433;DHT22;5263;48.680;9.004;2022-07-06T06:00:30;16.40;99.90
10433;DHT22;5263;48.680;9.004;2022-07-06T06:02:56;16.50;99.90
10433;DHT22;5263;48.680;9.004;2022-07-06T06:05:26;16.60;99.90
10433;DHT22;5263;48.680;9.004;2022-07-06T06:07:52;16.70;99.90
10433;DHT22;5263;48.680;9.004;2022-07-06T06:10:18;16.80;99.90
10433;DHT22;5263;48.680;9.004;2022-07-06T06:12:45;16.90;99.90
10433;DHT22;5263;48.680;9.004;2022-07-06T06:15:11;16.90;99.90
10433;DHT22;5263;48.680;9.004;2022-07-06T06:17:37;16.90;99.90
10433;DHT22;5263;48.680;9.004;2022-07-06T06:20:05;17.00;99.90
10433;DHT22;5263;48.680;9.004;2022-07-06T06:22:43;17.00;99.90
10433;DHT22;5263;48.680;9.004;2022-07-06T06:25:09;17.00;99.90
10433;DHT22;5263;48.680;9.004;2022-07-06T06:27:35;17.00;99.90
10433;DHT22;5263;48.680;9.004;2022-07-06T06:30:00;17.00;99.90
10433;DHT22;5263;48.680;9.004;2022-07-06T06:32:26;17.20;99.90
10433;DHT22;5263;48.680;9.004;2022-07-06T06:34:51;17.20;99.90
10433;DHT22;5263;48.680;9.004;2022-07-06T06:37:17;17.20;99.90
10433;DHT22;5263;48.680;9.004;2022-07-06T06:39:42;17.30;99.90
10433;DHT22;5263;48.680;9.004;2022-07-06T06:42:08;17.50;99.90
10433;DHT22;5263;48.680;9.004;2022-07-06T06:44:34;17.60;99.90
10433;DHT22;5263;48.680;9.004;2022-07-06T06:46:59;17.70;99.90
10433;DHT22;5263;48.680;9.004;2022-07-06T06:49:25;17.70;99.90
10433;DHT22;5263;48.680;9.004;2022-07-06T06:51:51;17.70;99.90
10433;DHT22;5263;48.680;9.004;2022-07-06T06:54:16;17.70;99.90
10433;DHT22;5263;48.680;9.004;2022-07-06T06:56:42;17.90;99.90
10433;DHT22;5263;48.680;9.004;2022-07-06T06:59:07;18.00;99.90
10433;DHT22;5263;48.680;9.004;2022-07-06T07:01:33;18.00;99.90
10433;DHT22;5263;48.680;9.004;2022-07-06T07:03:58;18.00;99.90
10433;DHT22;5263;48.680;9.004;2022-07-06T07:06:24;17.90;99.90
10433;DHT22;5263;48.680;9.004;2022-07-06T07:08:49;17.90;99.90
10433;DHT22;5263;48.680;9.004;2022-07-06T07:11:15;18.00;99.90
10433;DHT22;5263;48.680;9.004;2022-07-06T07:13:41;18.00;99.90
10433;DHT22;5263;48.680;9.004;2022-07-06T07:16:06;17.90;99.90
10433;DHT22;5263;48.680;9.004;2022-07-06T07:18:32;17.90;99.90
10433;DHT22;5263;48.680;9.004;2022-07-06T07:20:58;17.80;99.90
10433;DHT22;5263;48.680;9.004;2022-07-06T07:23:23;18.00;99.90
10433;DHT22;5263;48.680;9.004;2022-07-06T07:25:49;18.20;99.90
10433;DHT22;5263;48.680;9.004;2022-07-06T07:28:15;18.20;99.90
10433;DHT22;5263;48.680;9.004;2022-07-06T07:30:40;18.30;99.90
10433;DHT22;5263;48.680;9.004;2022-07-06T07:33:06;18.40;99.90
10433;DHT22;5263;48.680;9.004;2022-07-06T07:35:32;18.50;99.90
10433;DHT22;5263;48.680;9.004;2022-07-06T07:37:58;18.60;99.90
10433;DHT22;5263;48.680;9.004;2022-07-06T07:40:24;18.80;99.90
10433;DHT22;5263;48.680;9.004;2022-07-06T07:42:49;19.00;99.90
10433;DHT22;5263;48.680;9.004;2022-07-06T07:45:16;19.10;99.90
10433;DHT22;5263;48.680;9.004;2022-07-06T07:47:41;19.30;99.90
10433;DHT22;5263;48.680;9.004;2022-07-06T07:50:07;19.30;99.90
10433;DHT22;5263;48.680;9.004;2022-07-06T07:52:33;19.50;99.90
10433;DHT22;5263;48.680;9.004;2022-07-06T07:54:59;19.60;99.90
10433;DHT22;5263;48.680;9.004;2022-07-06T07:57:25;19.70;99.90
10433;DHT22;5263;48.680;9.004;2022-07-06T07:59:50;19.80;99.90
10433;DHT22;5263;48.680;9.004;2022-07-06T08:02:16;19.80;99.90
10433;DHT22;5263;48.680;9.004;2022-07-06T08:04:41;19.90;99.90
10433;DHT22;5263;48.680;9.004;2022-07-06T08:07:07;19.70;99.90
10433;DHT22;5263;48.680;9.004;2022-07-06T08:09:33;19.80;99.90
10433;DHT22;5263;48.680;9.004;2022-07-06T08:11:59;19.90;99.90
10433;DHT22;5263;48.680;9.004;2022-07-06T08:14:25;20.00;99.90
10433;DHT22;5263;48.680;9.004;2022-07-06T08:16:51;20.00;99.90
10433;DHT22;5263;48.680;9.004;2022-07-06T08:19:16;20.10;99.60
10433;DHT22;5263;48.680;9.004;2022-07-06T08:21:42;20.20;99.90
10433;DHT22;5263;48.680;9.004;2022-07-06T08:24:08;20.30;99.80
10433;DHT22;5263;48.680;9.004;2022-07-06T08:26:34;20.40;99.90
10433;DHT22;5263;48.680;9.004;2022-07-06T08:29:00;20.50;99.50
10433;DHT22;5263;48.680;9.004;2022-07-06T08:31:26;20.50;99.90
10433;DHT22;5263;48.680;9.004;2022-07-06T08:33:55;20.70;99.00
10433;DHT22;5263;48.680;9.004;2022-07-06T08:36:21;20.80;98.20
10433;DHT22;5263;48.680;9.004;2022-07-06T08:38:47;20.80;99.40
10433;DHT22;5263;48.680;9.004;2022-07-06T08:41:14;21.00;98.50
10433;DHT22;5263;48.680;9.004;2022-07-06T08:43:40;21.10;98.10
10433;DHT22;5263;48.680;9.004;2022-07-06T08:46:07;21.20;97.50
10433;DHT22;5263;48.680;9.004;2022-07-06T08:48:36;21.30;96.50
10433;DHT22;5263;48.680;9.004;2022-07-06T08:51:03;21.30;95.90
10433;DHT22;5263;48.680;9.004;2022-07-06T08:53:29;21.40;95.00
10433;DHT22;5263;48.680;9.004;2022-07-06T08:55:55;21.50;94.70
10433;DHT22;5263;48.680;9.004;2022-07-06T08:58:24;21.50;94.50
10433;DHT22;5263;48.680;9.004;2022-07-06T09:00:50;21.50;94.30
10433;DHT22;5263;48.680;9.004;2022-07-06T09:03:16;21.30;94.30
10433;DHT22;5263;48.680;9.004;2022-07-06T09:05:45;21.40;94.20
10433;DHT22;5263;48.680;9.004;2022-07-06T09:08:11;21.40;92.90
10433;DHT22;5263;48.680;9.004;2022-07-06T09:10:37;21.40;93.60
10433;DHT22;5263;48.680;9.004;2022-07-06T09:13:07;21.50;93.20
10433;DHT22;5263;48.680;9.004;2022-07-06T09:15:34;21.50;92.80
10433;DHT22;5263;48.680;9.004;2022-07-06T09:18:00;21.40;92.60
10433;DHT22;5263;48.680;9.004;2022-07-06T09:20:26;21.50;95.50
10433;DHT22;5263;48.680;9.004;2022-07-06T09:23:03;21.70;95.90
10433;DHT22;5263;48.680;9.004;2022-07-06T09:25:30;21.90;93.40
10433;DHT22;5263;48.680;9.004;2022-07-06T09:27:57;22.00;94.00
10433;DHT22;5263;48.680;9.004;2022-07-06T09:30:24;22.20;92.90
10433;DHT22;5263;48.680;9.004;2022-07-06T09:32:52;22.00;91.20
10433;DHT22;5263;48.680;9.004;2022-07-06T09:38:00;22.10;92.40
10433;DHT22;5263;48.680;9.004;2022-07-06T09:40:26;22.40;91.80
10433;DHT22;5263;48.680;9.004;2022-07-06T09:43:07;22.60;93.10
10433;DHT22;5263;48.680;9.004;2022-07-06T09:45:34;22.70;93.60
10433;DHT22;5263;48.680;9.004;2022-07-06T09:48:09;22.70;91.20
10433;DHT22;5263;48.680;9.004;2022-07-06T09:50:43;22.50;91.00
10433;DHT22;5263;48.680;9.004;2022-07-06T09:53:10;22.70;91.60
10433;DHT22;5263;48.680;9.004;2022-07-06T09:55:36;22.90;91.70
10433;DHT22;5263;48.680;9.004;2022-07-06T09:58:03;23.10;89.10
10433;DHT22;5263;48.680;9.004;2022-07-06T10:00:29;23.10;90.70
10433;DHT22;5263;48.680;9.004;2022-07-06T10:02:54;23.30;90.10
10433;DHT22;5263;48.680;9.004;2022-07-06T10:05:22;23.40;89.50
10433;DHT22;5263;48.680;9.004;2022-07-06T10:07:59;23.20;90.60
10433;DHT22;5263;48.680;9.004;2022-07-06T10:10:27;23.30;91.10
10433;DHT22;5263;48.680;9.004;2022-07-06T10:12:55;23.90;92.20
10433;DHT22;5263;48.680;9.004;2022-07-06T10:15:25;24.00;90.50
10433;DHT22;5263;48.680;9.004;2022-07-06T10:17:51;24.00;86.80
10433;DHT22;5263;48.680;9.004;2022-07-06T10:20:18;23.90;84.20
10433;DHT22;5263;48.680;9.004;2022-07-06T10:22:47;24.20;88.20
10433;DHT22;5263;48.680;9.004;2022-07-06T10:25:15;24.50;90.20
10433;DHT22;5263;48.680;9.004;2022-07-06T10:27:42;24.70;88.30
10433;DHT22;5263;48.680;9.004;2022-07-06T10:30:09;24.60;85.50
10433;DHT22;5263;48.680;9.004;2022-07-06T10:32:37;24.50;87.00
10433;DHT22;5263;48.680;9.004;2022-07-06T10:35:05;23.90;82.30
10433;DHT22;5263;48.680;9.004;2022-07-06T10:37:30;24.00;82.70
10433;DHT22;5263;48.680;9.004;2022-07-06T10:39:58;25.20;83.50
10433;DHT22;5263;48.680;9.004;2022-07-06T10:42:56;26.10;79.70
10433;DHT22;5263;48.680;9.004;2022-07-06T10:48:17;29.40;67.40
10433;DHT22;5263;48.680;9.004;2022-07-06T10:50:54;30.70;62.00
10433;DHT22;5263;48.680;9.004;2022-07-06T10:53:28;29.90;58.80
10433;DHT22;5263;48.680;9.004;2022-07-06T10:55:56;30.00;58.00
10433;DHT22;5263;48.680;9.004;2022-07-06T11:01:07;30.90;55.30
10433;DHT22;5263;48.680;9.004;2022-07-06T11:06:14;32.70;52.90
10433;DHT22;5263;48.680;9.004;2022-07-06T11:08:55;33.60;49.30
10433;DHT22;5263;48.680;9.004;2022-07-06T11:11:26;33.60;47.40
10433;DHT22;5263;48.680;9.004;2022-07-06T11:14:05;32.70;46.80
10433;DHT22;5263;48.680;9.004;2022-07-06T11:19:16;33.90;47.20
10433;DHT22;5263;48.680;9.004;2022-07-06T11:21:55;34.30;46.50
10433;DHT22;5263;48.680;9.004;2022-07-06T11:24:30;34.50;48.00
10433;DHT22;5263;48.680;9.004;2022-07-06T11:26:58;35.70;44.50
10433;DHT22;5263;48.680;9.004;2022-07-06T11:29:25;34.30;42.90
10433;DHT22;5263;48.680;9.004;2022-07-06T11:31:53;34.30;43.70
10433;DHT22;5263;48.680;9.004;2022-07-06T11:34:24;33.00;45.40
10433;DHT22;5263;48.680;9.004;2022-07-06T11:36:58;31.80;46.40
10433;DHT22;5263;48.680;9.004;2022-07-06T11:39:28;30.20;49.20
10433;DHT22;5263;48.680;9.004;2022-07-06T11:41:55;28.80;51.80
10433;DHT22;5263;48.680;9.004;2022-07-06T11:44:21;27.60;54.50
10433;DHT22;5263;48.680;9.004;2022-07-06T11:46:46;26.70;57.40
10433;DHT22;5263;48.680;9.004;2022-07-06T11:49:12;25.80;59.70
10433;DHT22;5263;48.680;9.004;2022-07-06T11:51:40;25.60;60.80
10433;DHT22;5263;48.680;9.004;2022-07-06T11:54:11;25.60;61.80
10433;DHT22;5263;48.680;9.004;2022-07-06T11:56:38;25.60;62.70
10433;DHT22;5263;48.680;9.004;2022-07-06T11:59:10;27.20;62.10
10433;DHT22;5263;48.680;9.004;2022-07-06T12:01:36;29.70;56.90
10433;DHT22;5263;48.680;9.004;2022-07-06T12:04:06;30.30;52.40
10433;DHT22;5263;48.680;9.004;2022-07-06T12:06:33;29.70;52.40
10433;DHT22;5263;48.680;9.004;2022-07-06T12:09:00;29.10;54.10
10433;DHT22;5263;48.680;9.004;2022-07-06T12:11:38;30.80;51.40
10433;DHT22;5263;48.680;9.004;2022-07-06T12:14:20;32.10;48.00
10433;DHT22;5263;48.680;9.004;2022-07-06T12:16:47;32.80;47.60
10433;DHT22;5263;48.680;9.004;2022-07-06T12:19:13;31.50;49.10
10433;DHT22;5263;48.680;9.004;2022-07-06T12:21:51;32.10;48.40
10433;DHT22;5263;48.680;9.004;2022-07-06T12:24:24;32.70;46.80
10433;DHT22;5263;48.680;9.004;2022-07-06T12:26:51;32.60;47.20
10433;DHT22;5263;48.680;9.004;2022-07-06T12:29:17;33.80;45.90
10433;DHT22;5263;48.680;9.004;2022-07-06T12:31:53;32.70;47.70
10433;DHT22;5263;48.680;9.004;2022-07-06T12:34:26;34.00;44.20
10433;DHT22;5263;48.680;9.004;2022-07-06T12:36:57;35.80;42.60
10433;DHT22;5263;48.680;9.004;2022-07-06T12:39:27;36.10;41.80
10433;DHT22;5263;48.680;9.004;2022-07-06T12:42:01;36.90;39.90
10433;DHT22;5263;48.680;9.004;2022-07-06T12:44:28;36.10;39.60
10433;DHT22;5263;48.680;9.004;2022-07-06T12:47:04;37.30;38.70
10433;DHT22;5263;48.680;9.004;2022-07-06T12:49:30;37.70;38.10
10433;DHT22;5263;48.680;9.004;2022-07-06T12:52:09;37.80;36.80
10433;DHT22;5263;48.680;9.004;2022-07-06T12:54:41;37.00;36.70
10433;DHT22;5263;48.680;9.004;2022-07-06T12:57:13;33.10;40.50
10433;DHT22;5263;48.680;9.004;2022-07-06T12:59:44;31.30;44.80
10433;DHT22;5263;48.680;9.004;2022-07-06T13:02:31;29.40;47.90
10433;DHT22;5263;48.680;9.004;2022-07-06T13:05:05;27.60;51.20
10433;DHT22;5263;48.680;9.004;2022-07-06T13:07:34;26.40;55.20
10433;DHT22;5263;48.680;9.004;2022-07-06T13:10:08;27.30;54.90
10433;DHT22;5263;48.680;9.004;2022-07-06T13:12:35;27.70;53.40
10433;DHT22;5263;48.680;9.004;2022-07-06T13:15:02;25.90;55.40
10433;DHT22;5263;48.680;9.004;2022-07-06T13:17:28;25.30;58.20
10433;DHT22;5263;48.680;9.004;2022-07-06T13:19:54;24.90;62.00
10433;DHT22;5263;48.680;9.004;2022-07-06T13:22:19;24.70;60.00
10433;DHT22;5263;48.680;9.004;2022-07-06T13:24:45;24.30;63.80
10433;DHT22;5263;48.680;9.004;2022-07-06T13:27:11;25.70;60.10
10433;DHT22;5263;48.680;9.004;2022-07-06T13:29:36;27.60;57.00
10433;DHT22;5263;48.680;9.004;2022-07-06T13:32:03;28.70;54.00
10433;DHT22;5263;48.680;9.004;2022-07-06T13:34:29;29.90;50.50
10433;DHT22;5263;48.680;9.004;2022-07-06T13:36:54;29.50;49.40
10433;DHT22;5263;48.680;9.004;2022-07-06T13:39:20;29.20;50.20
10433;DHT22;5263;48.680;9.004;2022-07-06T13:41:46;30.70;48.80
10433;DHT22;5263;48.680;9.004;2022-07-06T13:44:11;31.40;46.90
10433;DHT22;5263;48.680;9.004;2022-07-06T13:46:38;30.90;48.00
10433;DHT22;5263;48.680;9.004;2022-07-06T13:49:08;31.00;47.30
10433;DHT22;5263;48.680;9.004;2022-07-06T13:51:33;32.00;46.70
10433;DHT22;5263;48.680;9.004;2022-07-06T13:53:59;33.50;44.70
10433;DHT22;5263;48.680;9.004;2022-07-06T13:56:26;33.60;42.90
10433;DHT22;5263;48.680;9.004;2022-07-06T13:58:52;33.30;43.70
10433;DHT22;5263;48.680;9.004;2022-07-06T14:01:18;32.70;44.40
10433;DHT22;5263;48.680;9.004;2022-07-06T14:03:44;32.70;44.10
10433;DHT22;5263;48.680;9.004;2022-07-06T14:06:11;33.30;43.00
10433;DHT22;5263;48.680;9.004;2022-07-06T14:08:38;33.40;42.10
10433;DHT22;5263;48.680;9.004;2022-07-06T14:11:05;33.60;41.30
10433;DHT22;5263;48.680;9.004;2022-07-06T14:13:32;33.80;40.60
10433;DHT22;5263;48.680;9.004;2022-07-06T14:15:58;33.70;40.10
10433;DHT22;5263;48.680;9.004;2022-07-06T14:18:24;34.20;41.20
10433;DHT22;5263;48.680;9.004;2022-07-06T14:20:51;32.20;42.20
10433;DHT22;5263;48.680;9.004;2022-07-06T14:23:17;32.20;43.80
10433;DHT22;5263;48.680;9.004;2022-07-06T14:25:43;33.10;42.80
10433;DHT22;5263;48.680;9.004;2022-07-06T14:28:09;33.40;41.60
10433;DHT22;5263;48.680;9.004;2022-07-06T14:30:36;34.60;40.70
10433;DHT22;5263;48.680;9.004;2022-07-06T14:33:05;34.80;39.20
10433;DHT22;5263;48.680;9.004;2022-07-06T14:35:35;36.00;37.90
10433;DHT22;5263;48.680;9.004;2022-07-06T14:38:02;35.70;37.70
10433;DHT22;5263;48.680;9.004;2022-07-06T14:40:29;36.30;37.50
10433;DHT22;5263;48.680;9.004;2022-07-06T14:42:54;36.00;37.60
10433;DHT22;5263;48.680;9.004;2022-07-06T14:45:20;34.20;38.30
10433;DHT22;5263;48.680;9.004;2022-07-06T14:47:45;34.60;37.90
10433;DHT22;5263;48.680;9.004;2022-07-06T14:50:11;34.90;38.60
10433;DHT22;5263;48.680;9.004;2022-07-06T14:52:36;34.80;38.10
10433;DHT22;5263;48.680;9.004;2022-07-06T14:55:02;34.80;38.70
10433;DHT22;5263;48.680;9.004;2022-07-06T14:57:28;34.00;38.70
10433;DHT22;5263;48.680;9.004;2022-07-06T14:59:54;34.40;39.20
10433;DHT22;5263;48.680;9.004;2022-07-06T15:02:19;34.60;39.60
10433;DHT22;5263;48.680;9.004;2022-07-06T15:04:45;32.60;39.90
10433;DHT22;5263;48.680;9.004;2022-07-06T15:07:10;31.10;42.50
10433;DHT22;5263;48.680;9.004;2022-07-06T15:09:36;29.30;45.20
10433;DHT22;5263;48.680;9.004;2022-07-06T15:12:01;28.10;48.10
10433;DHT22;5263;48.680;9.004;2022-07-06T15:14:28;26.90;50.80
10433;DHT22;5263;48.680;9.004;2022-07-06T15:16:54;26.30;51.80
10433;DHT22;5263;48.680;9.004;2022-07-06T15:19:19;25.50;53.70
10433;DHT22;5263;48.680;9.004;2022-07-06T15:21:45;25.10;55.20
10433;DHT22;5263;48.680;9.004;2022-07-06T15:24:10;24.60;56.20
10433;DHT22;5263;48.680;9.004;2022-07-06T15:26:36;24.60;58.60
10433;DHT22;5263;48.680;9.004;2022-07-06T15:29:02;24.60;56.30
10433;DHT22;5263;48.680;9.004;2022-07-06T15:31:28;24.40;56.80
10433;DHT22;5263;48.680;9.004;2022-07-06T15:33:53;24.50;59.00
10433;DHT22;5263;48.680;9.004;2022-07-06T15:36:19;24.60;57.40
10433;DHT22;5263;48.680;9.004;2022-07-06T15:38:44;24.60;56.60
10433;DHT22;5263;48.680;9.004;2022-07-06T15:41:10;24.70;56.80
10433;DHT22;5263;48.680;9.004;2022-07-06T15:43:35;24.20;57.80
10433;DHT22;5263;48.680;9.004;2022-07-06T15:46:02;23.90;58.40
10433;DHT22;5263;48.680;9.004;2022-07-06T15:48:29;23.70;59.30
10433;DHT22;5263;48.680;9.004;2022-07-06T15:50:55;23.50;58.90
10433;DHT22;5263;48.680;9.004;2022-07-06T15:53:21;23.60;59.10
10433;DHT22;5263;48.680;9.004;2022-07-06T15:55:47;23.70;59.50
10433;DHT22;5263;48.680;9.004;2022-07-06T15:58:13;24.00;58.00